sensor_id;sensor_type;location;lat;lon;timestamp;P1;durP1;ratioP1;P2;durP2;ratioP2
2396;SDS011;1209;48.410;9.054;2023-01-15T00:00:55;0.70;;;0.70;;
2396;SDS011;1209;48.410;9.054;2023-01-15T00:03:20;0.80;;;0.80;;
2396;SDS011;1209;48.410;9.054;2023-01-15T00:05:45;0.50;;;0.50;;
2396;SDS011;1209;48.410;9.054;2023-01-15T00:08:11;0.93;;;0.70;;
2396;SDS011;1209;48.410;9.054;2023-01-15T00:10:36;0.70;;;0.70;;
2396;SDS011;1209;48.410;9.054;2023-01-15T00:13:01;0.50;;;0.50;;
2396;SDS011;1209;48.410;9.054;2023-01-15T00:15:27;0.60;;;0.60;;
2396;SDS011;1209;48.410;9.054;2023-01-15T00:17:52;0.60;;;0.60;;
2396;SDS011;1209;48.410;9.054;2023-01-15T00:20:17;0.60;;;0.60;;
2396;SDS011;1209;48.410;9.054;2023-01-15T00:22:43;0.50;;;0.50;;
2396;SDS011;1209;48.410;9.054;2023-01-15T00:25:08;0.73;;;0.73;;
2396;SDS011;1209;48.410;9.054;2023-01-15T00:27:53;0.50;;;0.50;;
2396;SDS011;1209;48.410;9.054;2023-01-15T00:30:19;0.80;;;0.80;;
2396;SDS011;1209;48.410;9.054;2023-01-15T00:32:44;0.60;;;0.60;;
2396;SDS011;1209;48.410;9.054;2023-01-15T00:35:13;0.43;;;0.43;;
2396;SDS011;1209;48.410;9.054;2023-01-15T00:37:41;0.50;;;0.50;;
2396;SDS011;1209;48.410;9.054;2023-01-15T00:40:06;0.60;;;0.60;;
2396;SDS011;1209;48.410;9.054;2023-01-15T00:42:32;0.53;;;0.53;;
2396;SDS011;1209;48.410;9.054;2023-01-15T00:44:58;0.60;;;0.60;;
2396;SDS011;1209;48.410;9.054;2023-01-15T00:47:29;0.60;;;0.60;;
2396;SDS011;1209;48.410;9.054;2023-01-15T00:49:54;0.40;;;0.40;;
2396;SDS011;1209;48.410;9.054;2023-01-15T00:52:20;0.60;;;0.60;;
2396;SDS011;1209;48.410;9.054;2023-01-15T00:54:45;0.50;;;0.50;;
2396;SDS011;1209;48.410;9.054;2023-01-15T00:57:12;0.53;;;0.53;;
2396;SDS011;1209;48.410;9.054;2023-01-15T00:59:37;2.30;;;0.93;;
2396;SDS011;1209;48.410;9.054;2023-01-15T01:02:02;1.67;;;0.67;;
2396;SDS011;1209;48.410;9.054;2023-01-15T01:04:28;0.50;;;0.50;;
2396;SDS011;1209;48.410;9.054;2023-01-15T01:06:53;0.77;;;0.77;;
2396;SDS011;1209;48.410;9.054;2023-01-15T01:09:19;0.70;;;0.70;;
2396;SDS011;1209;48.410;9.054;2023-01-15T01:11:44;0.60;;;0.60;;
2396;SDS011;1209;48.410;9.054;2023-01-15T01:14:10;0.50;;;0.50;;
2396;SDS011;1209;48.410;9.054;2023-01-15T01:16:37;0.60;;;0.60;;
2396;SDS011;1209;48.410;9.054;2023-01-15T01:19:11;0.60;;;0.60;;
2396;SDS011;1209;48.410;9.054;2023-01-15T01:21:41;0.57;;;0.57;;
2396;SDS011;1209;48.410;9.054;2023-01-15T01:24:09;0.63;;;0.63;;
2396;SDS011;1209;48.410;9.054;2023-01-15T01:26:36;0.57;;;0.57;;
2396;SDS011;1209;48.410;9.054;2023-01-15T01:29:01;0.70;;;0.70;;
2396;SDS011;1209;48.410;9.054;2023-01-15T01:31:27;0.60;;;0.60;;
2396;SDS011;1209;48.410;9.054;2023-01-15T01:33:54;0.70;;;0.70;;
2396;SDS011;1209;48.410;9.054;2023-01-15T01:36:25;0.60;;;0.60;;
2396;SDS011;1209;48.410;9.054;2023-01-15T01:38:52;0.60;;;0.60;;
2396;SDS011;1209;48.410;9.054;2023-01-15T01:41:18;0.50;;;0.50;;
2396;SDS011;1209;48.410;9.054;2023-01-15T01:46:53;0.60;;;0.60;;
2396;SDS011;1209;48.410;9.054;2023-01-15T01:49:19;0.70;;;0.70;;
2396;SDS011;1209;48.410;9.054;2023-01-15T01:51:46;0.50;;;0.50;;
2396;SDS011;1209;48.410;9.054;2023-01-15T01:54:16;0.50;;;0.50;;
2396;SDS011;1209;48.410;9.054;2023-01-15T01:56:45;0.57;;;0.57;;
2396;SDS011;1209;48.410;9.054;2023-01-15T01:59:13;0.60;;;0.60;;
2396;SDS011;1209;48.410;9.054;2023-01-15T02:01:41;0.70;;;0.70;;
2396;SDS011;1209;48.410;9.054;2023-01-15T02:04:06;0.60;;;0.60;;
2396;SDS011;1209;48.410;9.054;2023-01-15T02:06:35;0.50;;;0.50;;
2396;SDS011;1209;48.410;9.054;2023-01-15T02:09:02;0.60;;;0.60;;
2396;SDS011;1209;48.410;9.054;2023-01-15T02:11:28;0.60;;;0.60;;
2396;SDS011;1209;48.410;9.054;2023-01-15T02:16:56;0.50;;;0.50;;
2396;SDS011;1209;48.410;9.054;2023-01-15T02:22:43;0.50;;;0.50;;
2396;SDS011;1209;48.410;9.054;2023-01-15T02:28:21;0.60;;;0.60;;
2396;SDS011;1209;48.410;9.054;2023-01-15T02:33:48;0.50;;;0.50;;
2396;SDS011;1209;48.410;9.054;2023-01-15T02:36:30;0.40;;;0.40;;
2396;SDS011;1209;48.410;9.054;2023-01-15T02:39:01;0.47;;;0.47;;
2396;SDS011;1209;48.410;9.054;2023-01-15T02:41:31;0.53;;;0.53;;
2396;SDS011;1209;48.410;9.054;2023-01-15T02:44:00;0.60;;;0.60;;
2396;SDS011;1209;48.410;9.054;2023-01-15T02:46:30;0.50;;;0.50;;
2396;SDS011;1209;48.410;9.054;2023-01-15T02:48:58;0.50;;;0.50;;
2396;SDS011;1209;48.410;9.054;2023-01-15T02:51:26;0.50;;;0.50;;
2396;SDS011;1209;48.410;9.054;2023-01-15T02:53:57;0.60;;;0.60;;
2396;SDS011;1209;48.410;9.054;2023-01-15T02:56:27;0.50;;;0.50;;
2396;SDS011;1209;48.410;9.054;2023-01-15T02:58:56;0.50;;;0.50;;
2396;SDS011;1209;48.410;9.054;2023-01-15T03:01:30;2.33;;;0.50;;
2396;SDS011;1209;48.410;9.054;2023-01-15T03:04:09;0.60;;;0.60;;
2396;SDS011;1209;48.410;9.054;2023-01-15T03:06:42;0.70;;;0.70;;
2396;SDS011;1209;48.410;9.054;2023-01-15T03:09:12;0.90;;;0.90;;
2396;SDS011;1209;48.410;9.054;2023-01-15T03:11:43;0.43;;;0.43;;
2396;SDS011;1209;48.410;9.054;2023-01-15T03:14:19;0.80;;;0.60;;
2396;SDS011;1209;48.410;9.054;2023-01-15T03:16:52;0.60;;;0.60;;
2396;SDS011;1209;48.410;9.054;2023-01-15T03:24:36;0.60;;;0.60;;
2396;SDS011;1209;48.410;9.054;2023-01-15T03:27:23;0.80;;;0.50;;
2396;SDS011;1209;48.410;9.054;2023-01-15T03:29:50;0.77;;;0.50;;
2396;SDS011;1209;48.410;9.054;2023-01-15T03:32:18;0.43;;;0.43;;
2396;SDS011;1209;48.410;9.054;2023-01-15T03:34:45;0.40;;;0.40;;
2396;SDS011;1209;48.410;9.054;2023-01-15T03:37:14;0.40;;;0.40;;
2396;SDS011;1209;48.410;9.054;2023-01-15T03:39:39;0.50;;;0.50;;
2396;SDS011;1209;48.410;9.054;2023-01-15T03:42:10;1.80;;;0.60;;
2396;SDS011;1209;48.410;9.054;2023-01-15T03:44:51;0.50;;;0.50;;
2396;SDS011;1209;48.410;9.054;2023-01-15T03:52:51;0.53;;;0.53;;
2396;SDS011;1209;48.410;9.054;2023-01-15T03:55:30;0.50;;;0.50;;
2396;SDS011;1209;48.410;9.054;2023-01-15T03:58:12;0.50;;;0.50;;
2396;SDS011;1209;48.410;9.054;2023-01-15T04:00:45;0.50;;;0.50;;
2396;SDS011;1209;48.410;9.054;2023-01-15T04:03:15;0.60;;;0.60;;
2396;SDS011;1209;48.410;9.054;2023-01-15T04:05:42;0.60;;;0.60;;
2396;SDS011;1209;48.410;9.054;2023-01-15T04:08:10;0.50;;;0.50;;
2396;SDS011;1209;48.410;9.054;2023-01-15T04:10:37;0.63;;;0.50;;
2396;SDS011;1209;48.410;9.054;2023-01-15T04:13:02;0.60;;;0.60;;
2396;SDS011;1209;48.410;9.054;2023-01-15T04:15:28;0.50;;;0.50;;
2396;SDS011;1209;48.410;9.054;2023-01-15T04:17:53;0.70;;;0.70;;
2396;SDS011;1209;48.410;9.054;2023-01-15T04:20:18;0.50;;;0.50;;
2396;SDS011;1209;48.410;9.054;2023-01-15T04:22:43;0.50;;;0.50;;
2396;SDS011;1209;48.410;9.054;2023-01-15T04:25:09;0.50;;;0.50;;
2396;SDS011;1209;48.410;9.054;2023-01-15T04:27:35;0.60;;;0.60;;
2396;SDS011;1209;48.410;9.054;2023-01-15T04:30:00;0.63;;;0.63;;
2396;SDS011;1209;48.410;9.054;2023-01-15T04:32:25;0.50;;;0.50;;
2396;SDS011;1209;48.410;9.054;2023-01-15T04:34:51;0.50;;;0.50;;
2396;SDS011;1209;48.410;9.054;2023-01-15T04:37:16;0.50;;;0.50;;
2396;SDS011;1209;48.410;9.054;2023-01-15T04:39:42;0.50;;;0.50;;
2396;SDS011;1209;48.410;9.054;2023-01-15T04:42:11;0.60;;;0.60;;
2396;SDS011;1209;48.410;9.054;2023-01-15T04:44:55;0.50;;;0.50;;
2396;SDS011;1209;48.410;9.054;2023-01-15T04:47:21;0.60;;;0.60;;
2396;SDS011;1209;48.410;9.054;2023-01-15T04:49:46;0.50;;;0.50;;
2396;SDS011;1209;48.410;9.054;2023-01-15T04:52:11;0.43;;;0.43;;
2396;SDS011;1209;48.410;9.054;2023-01-15T04:54:37;0.50;;;0.50;;
2396;SDS011;1209;48.410;9.054;2023-01-15T04:57:03;0.47;;;0.47;;
2396;SDS011;1209;48.410;9.054;2023-01-15T04:59:28;3.43;;;1.27;;
2396;SDS011;1209;48.410;9.054;2023-01-15T05:01:54;0.50;;;0.50;;
2396;SDS011;1209;48.410;9.054;2023-01-15T05:04:19;0.60;;;0.60;;
2396;SDS011;1209;48.410;9.054;2023-01-15T05:06:45;0.40;;;0.40;;
2396;SDS011;1209;48.410;9.054;2023-01-15T05:09:10;0.50;;;0.50;;
2396;SDS011;1209;48.410;9.054;2023-01-15T05:11:36;0.60;;;0.60;;
2396;SDS011;1209;48.410;9.054;2023-01-15T05:14:04;0.53;;;0.53;;
2396;SDS011;1209;48.410;9.054;2023-01-15T05:16:30;0.50;;;0.50;;
2396;SDS011;1209;48.410;9.054;2023-01-15T05:18:57;0.50;;;0.50;;
2396;SDS011;1209;48.410;9.054;2023-01-15T05:21:27;0.50;;;0.50;;
2396;SDS011;1209;48.410;9.054;2023-01-15T05:23:55;0.50;;;0.50;;
2396;SDS011;1209;48.410;9.054;2023-01-15T05:26:22;0.60;;;0.60;;
2396;SDS011;1209;48.410;9.054;2023-01-15T05:28:48;0.50;;;0.50;;
2396;SDS011;1209;48.410;9.054;2023-01-15T05:31:15;4.63;;;1.53;;
2396;SDS011;1209;48.410;9.054;2023-01-15T05:33:42;0.50;;;0.50;;
2396;SDS011;1209;48.410;9.054;2023-01-15T05:36:09;0.57;;;0.57;;
2396;SDS011;1209;48.410;9.054;2023-01-15T05:38:36;2.23;;;0.60;;
2396;SDS011;1209;48.410;9.054;2023-01-15T05:41:06;0.50;;;0.50;;
2396;SDS011;1209;48.410;9.054;2023-01-15T05:43:56;0.50;;;0.50;;
2396;SDS011;1209;48.410;9.054;2023-01-15T05:46:24;0.50;;;0.50;;
2396;SDS011;1209;48.410;9.054;2023-01-15T05:48:49;0.50;;;0.50;;
2396;SDS011;1209;48.410;9.054;2023-01-15T05:51:15;0.50;;;0.50;;
2396;SDS011;1209;48.410;9.054;2023-01-15T05:53:40;0.50;;;0.50;;
2396;SDS011;1209;48.410;9.054;2023-01-15T05:56:06;0.50;;;0.50;;
2396;SDS011;1209;48.410;9.054;2023-01-15T05:58:31;0.60;;;0.53;;
2396;SDS011;1209;48.410;9.054;2023-01-15T06:00:57;0.70;;;0.70;;
2396;SDS011;1209;48.410;9.054;2023-01-15T06:03:23;0.50;;;0.50;;
2396;SDS011;1209;48.410;9.054;2023-01-15T06:05:53;0.60;;;0.60;;
2396;SDS011;1209;48.410;9.054;2023-01-15T06:08:19;0.50;;;0.50;;
2396;SDS011;1209;48.410;9.054;2023-01-15T06:10:45;0.60;;;0.60;;
2396;SDS011;1209;48.410;9.054;2023-01-15T06:13:11;0.50;;;0.50;;
2396;SDS011;1209;48.410;9.054;2023-01-15T06:15:37;0.40;;;0.40;;
2396;SDS011;1209;48.410;9.054;2023-01-15T06:18:03;0.60;;;0.60;;
2396;SDS011;1209;48.410;9.054;2023-01-15T06:20:28;0.60;;;0.60;;
2396;SDS011;1209;48.410;9.054;2023-01-15T06:22:53;0.60;;;0.60;;
2396;SDS011;1209;48.410;9.054;2023-01-15T06:25:19;0.50;;;0.50;;
2396;SDS011;1209;48.410;9.054;2023-01-15T06:27:44;0.50;;;0.50;;
2396;SDS011;1209;48.410;9.054;2023-01-15T06:30:10;0.57;;;0.57;;
2396;SDS011;1209;48.410;9.054;2023-01-15T06:32:36;0.53;;;0.53;;
2396;SDS011;1209;48.410;9.054;2023-01-15T06:35:01;0.60;;;0.60;;
2396;SDS011;1209;48.410;9.054;2023-01-15T06:37:27;0.50;;;0.50;;
2396;SDS011;1209;48.410;9.054;2023-01-15T06:39:52;0.50;;;0.50;;
2396;SDS011;1209;48.410;9.054;2023-01-15T06:42:17;0.60;;;0.60;;
2396;SDS011;1209;48.410;9.054;2023-01-15T06:45:01;0.50;;;0.50;;
2396;SDS011;1209;48.410;9.054;2023-01-15T06:47:46;0.60;;;0.60;;
2396;SDS011;1209;48.410;9.054;2023-01-15T06:50:11;0.60;;;0.60;;
2396;SDS011;1209;48.410;9.054;2023-01-15T06:52:37;0.57;;;0.57;;
2396;SDS011;1209;48.410;9.054;2023-01-15T06:55:02;0.50;;;0.50;;
2396;SDS011;1209;48.410;9.054;2023-01-15T06:57:28;0.60;;;0.60;;
2396;SDS011;1209;48.410;9.054;2023-01-15T06:59:53;0.60;;;0.60;;
2396;SDS011;1209;48.410;9.054;2023-01-15T07:02:19;0.90;;;0.90;;
2396;SDS011;1209;48.410;9.054;2023-01-15T07:04:45;1.17;;;1.17;;
2396;SDS011;1209;48.410;9.054;2023-01-15T07:07:12;1.73;;;1.37;;
2396;SDS011;1209;48.410;9.054;2023-01-15T07:09:38;1.43;;;1.40;;
2396;SDS011;1209;48.410;9.054;2023-01-15T07:12:04;0.97;;;0.97;;
2396;SDS011;1209;48.410;9.054;2023-01-15T07:14:29;0.93;;;0.93;;
2396;SDS011;1209;48.410;9.054;2023-01-15T07:16:56;1.10;;;0.80;;
2396;SDS011;1209;48.410;9.054;2023-01-15T07:19:23;0.90;;;0.90;;
2396;SDS011;1209;48.410;9.054;2023-01-15T07:21:48;0.60;;;0.60;;
2396;SDS011;1209;48.410;9.054;2023-01-15T07:24:13;0.93;;;0.93;;
2396;SDS011;1209;48.410;9.054;2023-01-15T07:26:39;2.03;;;1.30;;
2396;SDS011;1209;48.410;9.054;2023-01-15T07:29:05;1.00;;;1.00;;
2396;SDS011;1209;48.410;9.054;2023-01-15T07:31:31;0.83;;;0.83;;
2396;SDS011;1209;48.410;9.054;2023-01-15T07:33:56;2.27;;;1.43;;
2396;SDS011;1209;48.410;9.054;2023-01-15T07:36:22;1.47;;;1.30;;
2396;SDS011;1209;48.410;9.054;2023-01-15T07:38:48;1.13;;;1.13;;
2396;SDS011;1209;48.410;9.054;2023-01-15T07:41:14;1.33;;;1.13;;
2396;SDS011;1209;48.410;9.054;2023-01-15T07:43:58;0.97;;;0.93;;
2396;SDS011;1209;48.410;9.054;2023-01-15T07:46:49;0.90;;;0.90;;
2396;SDS011;1209;48.410;9.054;2023-01-15T07:49:33;0.63;;;0.63;;
2396;SDS011;1209;48.410;9.054;2023-01-15T07:52:18;0.83;;;0.83;;
2396;SDS011;1209;48.410;9.054;2023-01-15T07:54:45;0.90;;;0.90;;
2396;SDS011;1209;48.410;9.054;2023-01-15T07:57:11;0.80;;;0.80;;
2396;SDS011;1209;48.410;9.054;2023-01-15T07:59:39;0.80;;;0.80;;
2396;SDS011;1209;48.410;9.054;2023-01-15T08:02:04;0.80;;;0.80;;
2396;SDS011;1209;48.410;9.054;2023-01-15T08:04:30;0.80;;;0.80;;
2396;SDS011;1209;48.410;9.054;2023-01-15T08:06:57;1.30;;;1.30;;
2396;SDS011;1209;48.410;9.054;2023-01-15T08:09:24;0.70;;;0.70;;
2396;SDS011;1209;48.410;9.054;2023-01-15T08:11:50;1.20;;;1.10;;
2396;SDS011;1209;48.410;9.054;2023-01-15T08:14:34;1.00;;;1.00;;
2396;SDS011;1209;48.410;9.054;2023-01-15T08:17:18;0.90;;;0.90;;
2396;SDS011;1209;48.410;9.054;2023-01-15T08:19:43;1.40;;;1.30;;
2396;SDS011;1209;48.410;9.054;2023-01-15T08:22:09;0.97;;;0.97;;
2396;SDS011;1209;48.410;9.054;2023-01-15T08:24:34;2.00;;;1.60;;
2396;SDS011;1209;48.410;9.054;2023-01-15T08:27:00;0.90;;;0.90;;
2396;SDS011;1209;48.410;9.054;2023-01-15T08:29:25;0.70;;;0.70;;
2396;SDS011;1209;48.410;9.054;2023-01-15T08:31:51;0.70;;;0.70;;
2396;SDS011;1209;48.410;9.054;2023-01-15T08:34:17;0.70;;;0.70;;
2396;SDS011;1209;48.410;9.054;2023-01-15T08:36:43;0.60;;;0.60;;
2396;SDS011;1209;48.410;9.054;2023-01-15T08:39:08;0.70;;;0.70;;
2396;SDS011;1209;48.410;9.054;2023-01-15T08:41:34;0.60;;;0.60;;
2396;SDS011;1209;48.410;9.054;2023-01-15T08:43:59;0.80;;;0.80;;
2396;SDS011;1209;48.410;9.054;2023-01-15T08:46:25;0.87;;;0.87;;
2396;SDS011;1209;48.410;9.054;2023-01-15T08:48:50;0.90;;;0.90;;
2396;SDS011;1209;48.410;9.054;2023-01-15T08:51:17;0.80;;;0.80;;
2396;SDS011;1209;48.410;9.054;2023-01-15T08:53:43;0.70;;;0.70;;
2396;SDS011;1209;48.410;9.054;2023-01-15T08:56:12;1.07;;;1.00;;
2396;SDS011;1209;48.410;9.054;2023-01-15T08:58:39;0.90;;;0.90;;
2396;SDS011;1209;48.410;9.054;2023-01-15T09:01:05;0.60;;;0.60;;
2396;SDS011;1209;48.410;9.054;2023-01-15T09:03:32;0.60;;;0.60;;
2396;SDS011;1209;48.410;9.054;2023-01-15T09:05:58;0.80;;;0.80;;
2396;SDS011;1209;48.410;9.054;2023-01-15T09:08:24;0.80;;;0.80;;
2396;SDS011;1209;48.410;9.054;2023-01-15T09:10:50;0.60;;;0.60;;
2396;SDS011;1209;48.410;9.054;2023-01-15T09:13:15;0.80;;;0.80;;
2396;SDS011;1209;48.410;9.054;2023-01-15T09:15:41;0.80;;;0.80;;
2396;SDS011;1209;48.410;9.054;2023-01-15T09:18:06;0.63;;;0.63;;
2396;SDS011;1209;48.410;9.054;2023-01-15T09:20:34;0.65;;;0.65;;
2396;SDS011;1209;48.410;9.054;2023-01-15T09:23:00;0.60;;;0.60;;
2396;SDS011;1209;48.410;9.054;2023-01-15T09:25:25;0.80;;;0.80;;
2396;SDS011;1209;48.410;9.054;2023-01-15T09:27:53;0.70;;;0.70;;
2396;SDS011;1209;48.410;9.054;2023-01-15T09:30:19;1.27;;;1.00;;
2396;SDS011;1209;48.410;9.054;2023-01-15T09:32:45;0.70;;;0.70;;
2396;SDS011;1209;48.410;9.054;2023-01-15T09:35:11;0.80;;;0.80;;
2396;SDS011;1209;48.410;9.054;2023-01-15T09:37:36;1.00;;;1.00;;
2396;SDS011;1209;48.410;9.054;2023-01-15T09:40:02;0.80;;;0.80;;
2396;SDS011;1209;48.410;9.054;2023-01-15T09:45:39;0.57;;;0.57;;
2396;SDS011;1209;48.410;9.054;2023-01-15T09:51:14;0.90;;;0.90;;
2396;SDS011;1209;48.410;9.054;2023-01-15T09:56:48;0.90;;;0.90;;
2396;SDS011;1209;48.410;9.054;2023-01-15T09:59:19;0.80;;;0.80;;
2396;SDS011;1209;48.410;9.054;2023-01-15T10:01:50;0.80;;;0.80;;
2396;SDS011;1209;48.410;9.054;2023-01-15T10:10:10;0.90;;;0.90;;
2396;SDS011;1209;48.410;9.054;2023-01-15T10:12:39;0.70;;;0.70;;
2396;SDS011;1209;48.410;9.054;2023-01-15T10:17:58;1.08;;;1.08;;
2396;SDS011;1209;48.410;9.054;2023-01-15T10:25:54;1.00;;;1.00;;
2396;SDS011;1209;48.410;9.054;2023-01-15T10:28:40;0.88;;;0.80;;
2396;SDS011;1209;48.410;9.054;2023-01-15T10:31:18;0.75;;;0.75;;
2396;SDS011;1209;48.410;9.054;2023-01-15T10:33:51;0.80;;;0.80;;
2396;SDS011;1209;48.410;9.054;2023-01-15T10:36:31;0.75;;;0.75;;
2396;SDS011;1209;48.410;9.054;2023-01-15T10:39:19;0.68;;;0.68;;
2396;SDS011;1209;48.410;9.054;2023-01-15T10:41:57;0.77;;;0.77;;
2396;SDS011;1209;48.410;9.054;2023-01-15T10:44:27;0.70;;;0.70;;
2396;SDS011;1209;48.410;9.054;2023-01-15T10:47:07;0.75;;;0.75;;
2396;SDS011;1209;48.410;9.054;2023-01-15T10:49:36;0.88;;;0.88;;
2396;SDS011;1209;48.410;9.054;2023-01-15T10:52:04;1.38;;;1.08;;
2396;SDS011;1209;48.410;9.054;2023-01-15T10:54:41;0.80;;;0.80;;
2396;SDS011;1209;48.410;9.054;2023-01-15T11:00:01;0.70;;;0.70;;
2396;SDS011;1209;48.410;9.054;2023-01-15T11:02:28;0.90;;;0.90;;
2396;SDS011;1209;48.410;9.054;2023-01-15T11:05:02;0.77;;;0.77;;
2396;SDS011;1209;48.410;9.054;2023-01-15T11:07:33;1.30;;;1.10;;
2396;SDS011;1209;48.410;9.054;2023-01-15T11:10:03;0.90;;;0.90;;
2396;SDS011;1209;48.410;9.054;2023-01-15T11:12:31;0.70;;;0.70;;
2396;SDS011;1209;48.410;9.054;2023-01-15T11:15:17;0.77;;;0.77;;
2396;SDS011;1209;48.410;9.054;2023-01-15T11:18:10;0.90;;;0.90;;
2396;SDS011;1209;48.410;9.054;2023-01-15T11:20:56;0.75;;;0.75;;
2396;SDS011;1209;48.410;9.054;2023-01-15T11:23:22;0.90;;;0.90;;
2396;SDS011;1209;48.410;9.054;2023-01-15T11:25:49;0.90;;;0.90;;
2396;SDS011;1209;48.410;9.054;2023-01-15T11:28:39;0.90;;;0.90;;
2396;SDS011;1209;48.410;9.054;2023-01-15T11:31:07;0.90;;;0.90;;
2396;SDS011;1209;48.410;9.054;2023-01-15T11:33:34;1.00;;;1.00;;
2396;SDS011;1209;48.410;9.054;2023-01-15T11:36:02;1.00;;;1.00;;
2396;SDS011;1209;48.410;9.054;2023-01-15T11:38:31;1.17;;;1.10;;
2396;SDS011;1209;48.410;9.054;2023-01-15T11:41:21;1.10;;;0.90;;
2396;SDS011;1209;48.410;9.054;2023-01-15T11:44:13;0.90;;;0.90;;
2396;SDS011;1209;48.410;9.054;2023-01-15T11:46:58;0.88;;;0.88;;
2396;SDS011;1209;48.410;9.054;2023-01-15T11:49:51;0.90;;;0.90;;
2396;SDS011;1209;48.410;9.054;2023-01-15T11:52:37;0.70;;;0.70;;
2396;SDS011;1209;48.410;9.054;2023-01-15T11:55:09;0.80;;;0.80;;
2396;SDS011;1209;48.410;9.054;2023-01-15T11:57:41;0.90;;;0.90;;
2396;SDS011;1209;48.410;9.054;2023-01-15T12:00:07;0.70;;;0.70;;
2396;SDS011;1209;48.410;9.054;2023-01-15T12:02:46;0.95;;;0.95;;
2396;SDS011;1209;48.410;9.054;2023-01-15T12:05:15;0.90;;;0.90;;
2396;SDS011;1209;48.410;9.054;2023-01-15T12:07:43;0.90;;;0.90;;
2396;SDS011;1209;48.410;9.054;2023-01-15T12:23:36;0.60;;;0.60;;
2396;SDS011;1209;48.410;9.054;2023-01-15T12:26:37;0.80;;;0.80;;
2396;SDS011;1209;48.410;9.054;2023-01-15T12:31:48;0.80;;;0.80;;
2396;SDS011;1209;48.410;9.054;2023-01-15T12:34:22;0.90;;;0.90;;
2396;SDS011;1209;48.410;9.054;2023-01-15T12:36:54;0.75;;;0.75;;
2396;SDS011;1209;48.410;9.054;2023-01-15T12:39:26;1.30;;;1.20;;
2396;SDS011;1209;48.410;9.054;2023-01-15T12:42:02;0.70;;;0.70;;
2396;SDS011;1209;48.410;9.054;2023-01-15T12:44:50;0.93;;;0.93;;
2396;SDS011;1209;48.410;9.054;2023-01-15T12:47:29;1.00;;;1.00;;
2396;SDS011;1209;48.410;9.054;2023-01-15T12:50:03;0.88;;;0.88;;
2396;SDS011;1209;48.410;9.054;2023-01-15T12:52:34;2.08;;;0.82;;
2396;SDS011;1209;48.410;9.054;2023-01-15T12:55:13;1.00;;;1.00;;
2396;SDS011;1209;48.410;9.054;2023-01-15T12:57:43;1.70;;;1.35;;
2396;SDS011;1209;48.410;9.054;2023-01-15T13:00:34;1.40;;;1.30;;
2396;SDS011;1209;48.410;9.054;2023-01-15T13:05:46;1.10;;;1.02;;
2396;SDS011;1209;48.410;9.054;2023-01-15T13:10:50;1.30;;;1.20;;
2396;SDS011;1209;48.410;9.054;2023-01-15T13:13:18;1.40;;;1.30;;
2396;SDS011;1209;48.410;9.054;2023-01-15T13:18:25;0.90;;;0.90;;
2396;SDS011;1209;48.410;9.054;2023-01-15T13:21:03;1.00;;;1.00;;
2396;SDS011;1209;48.410;9.054;2023-01-15T13:23:43;1.00;;;1.00;;
2396;SDS011;1209;48.410;9.054;2023-01-15T13:26:47;0.93;;;0.93;;
2396;SDS011;1209;48.410;9.054;2023-01-15T13:32:22;1.63;;;1.30;;
2396;SDS011;1209;48.410;9.054;2023-01-15T13:34:55;1.77;;;1.13;;
2396;SDS011;1209;48.410;9.054;2023-01-15T13:37:27;1.50;;;1.50;;
2396;SDS011;1209;48.410;9.054;2023-01-15T13:40:38;1.20;;;1.20;;
2396;SDS011;1209;48.410;9.054;2023-01-15T13:42:49;0.85;;;0.85;;
2396;SDS011;1209;48.410;9.054;2023-01-15T13:48:11;0.85;;;0.85;;
2396;SDS011;1209;48.410;9.054;2023-01-15T13:50:41;1.10;;;1.10;;
2396;SDS011;1209;48.410;9.054;2023-01-15T13:55:48;1.38;;;1.10;;
2396;SDS011;1209;48.410;9.054;2023-01-15T13:58:26;1.20;;;1.20;;
2396;SDS011;1209;48.410;9.054;2023-01-15T14:06:41;1.30;;;1.15;;
2396;SDS011;1209;48.410;9.054;2023-01-15T14:28:00;1.02;;;1.02;;
2396;SDS011;1209;48.410;9.054;2023-01-15T14:35:49;2.28;;;1.63;;
2396;SDS011;1209;48.410;9.054;2023-01-15T14:38:19;1.48;;;1.40;;
2396;SDS011;1209;48.410;9.054;2023-01-15T14:40:51;1.35;;;1.25;;
2396;SDS011;1209;48.410;9.054;2023-01-15T14:43:23;1.08;;;1.08;;
2396;SDS011;1209;48.410;9.054;2023-01-15T14:45:52;0.90;;;0.90;;
2396;SDS011;1209;48.410;9.054;2023-01-15T14:48:20;1.08;;;1.08;;
2396;SDS011;1209;48.410;9.054;2023-01-15T14:51:08;3.00;;;1.40;;
2396;SDS011;1209;48.410;9.054;2023-01-15T14:56:18;2.08;;;1.27;;
2396;SDS011;1209;48.410;9.054;2023-01-15T15:01:44;1.00;;;1.00;;
2396;SDS011;1209;48.410;9.054;2023-01-15T15:07:13;0.95;;;0.95;;
2396;SDS011;1209;48.410;9.054;2023-01-15T15:09:45;1.77;;;1.65;;
2396;SDS011;1209;48.410;9.054;2023-01-15T15:12:24;1.27;;;1.27;;
2396;SDS011;1209;48.410;9.054;2023-01-15T15:17:43;1.60;;;1.50;;
2396;SDS011;1209;48.410;9.054;2023-01-15T15:26:23;1.20;;;1.20;;
2396;SDS011;1209;48.410;9.054;2023-01-15T15:29:33;1.30;;;1.30;;
2396;SDS011;1209;48.410;9.054;2023-01-15T15:36:56;1.60;;;1.33;;
2396;SDS011;1209;48.410;9.054;2023-01-15T15:42:32;1.90;;;1.75;;
2396;SDS011;1209;48.410;9.054;2023-01-15T15:45:24;2.20;;;1.95;;
2396;SDS011;1209;48.410;9.054;2023-01-15T15:48:10;7.72;;;1.40;;
2396;SDS011;1209;48.410;9.054;2023-01-15T15:50:54;2.28;;;1.75;;
2396;SDS011;1209;48.410;9.054;2023-01-15T15:53:19;1.50;;;1.40;;
2396;SDS011;1209;48.410;9.054;2023-01-15T15:55:44;2.87;;;1.20;;
2396;SDS011;1209;48.410;9.054;2023-01-15T15:58:19;1.40;;;1.40;;
2396;SDS011;1209;48.410;9.054;2023-01-15T16:00:46;1.10;;;1.10;;
2396;SDS011;1209;48.410;9.054;2023-01-15T16:03:23;3.35;;;1.60;;
2396;SDS011;1209;48.410;9.054;2023-01-15T16:05:54;2.63;;;1.67;;
2396;SDS011;1209;48.410;9.054;2023-01-15T16:08:24;1.65;;;1.55;;
2396;SDS011;1209;48.410;9.054;2023-01-15T16:10:54;1.50;;;1.50;;
2396;SDS011;1209;48.410;9.054;2023-01-15T16:13:43;1.38;;;1.30;;
2396;SDS011;1209;48.410;9.054;2023-01-15T16:16:09;1.55;;;1.45;;
2396;SDS011;1209;48.410;9.054;2023-01-15T16:18:37;1.38;;;1.25;;
2396;SDS011;1209;48.410;9.054;2023-01-15T16:21:08;1.85;;;1.40;;
2396;SDS011;1209;48.410;9.054;2023-01-15T16:23:35;4.68;;;2.03;;
2396;SDS011;1209;48.410;9.054;2023-01-15T16:26:17;3.80;;;1.60;;
2396;SDS011;1209;48.410;9.054;2023-01-15T16:28:53;1.75;;;1.60;;
2396;SDS011;1209;48.410;9.054;2023-01-15T16:31:21;1.55;;;1.45;;
2396;SDS011;1209;48.410;9.054;2023-01-15T16:33:54;1.40;;;1.40;;
2396;SDS011;1209;48.410;9.054;2023-01-15T16:36:22;2.05;;;1.45;;
2396;SDS011;1209;48.410;9.054;2023-01-15T16:38:48;2.25;;;1.25;;
2396;SDS011;1209;48.410;9.054;2023-01-15T16:41:19;3.63;;;1.10;;
2396;SDS011;1209;48.410;9.054;2023-01-15T16:43:56;1.10;;;1.10;;
2396;SDS011;1209;48.410;9.054;2023-01-15T16:46:26;1.20;;;1.20;;
2396;SDS011;1209;48.410;9.054;2023-01-15T16:51:56;1.33;;;1.27;;
2396;SDS011;1209;48.410;9.054;2023-01-15T16:56:54;2.20;;;2.03;;
2396;SDS011;1209;48.410;9.054;2023-01-15T17:01:50;2.53;;;1.58;;
2396;SDS011;1209;48.410;9.054;2023-01-15T17:04:36;2.50;;;2.20;;
2396;SDS011;1209;48.410;9.054;2023-01-15T17:07:18;1.77;;;1.58;;
2396;SDS011;1209;48.410;9.054;2023-01-15T17:09:48;1.50;;;1.40;;
2396;SDS011;1209;48.410;9.054;2023-01-15T17:12:21;1.17;;;1.08;;
2396;SDS011;1209;48.410;9.054;2023-01-15T17:17:40;1.63;;;1.23;;
2396;SDS011;1209;48.410;9.054;2023-01-15T17:20:10;1.25;;;1.10;;
2396;SDS011;1209;48.410;9.054;2023-01-15T17:22:38;1.40;;;1.30;;
2396;SDS011;1209;48.410;9.054;2023-01-15T17:25:20;2.83;;;1.30;;
2396;SDS011;1209;48.410;9.054;2023-01-15T17:27:59;1.30;;;1.15;;
2396;SDS011;1209;48.410;9.054;2023-01-15T17:30:26;2.47;;;1.13;;
2396;SDS011;1209;48.410;9.054;2023-01-15T17:33:02;1.10;;;1.10;;
2396;SDS011;1209;48.410;9.054;2023-01-15T17:35:30;1.17;;;1.17;;
2396;SDS011;1209;48.410;9.054;2023-01-15T17:37:57;1.10;;;1.10;;
2396;SDS011;1209;48.410;9.054;2023-01-15T17:40:23;2.10;;;1.30;;
2396;SDS011;1209;48.410;9.054;2023-01-15T17:42:49;1.27;;;1.10;;
2396;SDS011;1209;48.410;9.054;2023-01-15T17:45:16;1.23;;;1.23;;
2396;SDS011;1209;48.410;9.054;2023-01-15T17:47:44;2.65;;;1.35;;
2396;SDS011;1209;48.410;9.054;2023-01-15T17:50:09;1.60;;;1.50;;
2396;SDS011;1209;48.410;9.054;2023-01-15T17:52:35;1.20;;;1.10;;
2396;SDS011;1209;48.410;9.054;2023-01-15T17:55:00;1.23;;;1.13;;
2396;SDS011;1209;48.410;9.054;2023-01-15T17:57:44;2.80;;;1.40;;
2396;SDS011;1209;48.410;9.054;2023-01-15T18:00:28;0.95;;;0.95;;
2396;SDS011;1209;48.410;9.054;2023-01-15T18:03:13;5.50;;;2.80;;
2396;SDS011;1209;48.410;9.054;2023-01-15T18:06:01;3.08;;;1.20;;